Time;durP1;ratioP1;P1;durP2;ratioP2;P2;SDS_P1;SDS_P2;PMS_P1;PMS_P2;Temp;Humidity;BMP_temperature;BMP_pressure;BME280_temperature;BME280_humidity;BME280_pressure;Samples;Min_cycle;Max_cycle;Signal;HPM_P1;HPM_P2
2023/01/04 00:01:23;;;;;;;4.37;2.77;;;;;;;;;;5037012;28;20472;-80
2023/01/04 00:03:51;;;;;;;5.17;3.10;;;;;;;;;;5034708;28;20475;-80
2023/01/04 00:06:18;;;;;;;10.83;2.77;;;;;;;;;;5038000;28;20470;-80
2023/01/04 00:08:44;;;;;;;4.93;2.63;;;;;;;;;;5037521;28;20477;-80
2023/01/04 00:11:11;;;;;;;3.40;2.57;;;;;;;;;;5034605;28;20464;-79
2023/01/04 00:13:38;;;;;;;3.83;2.23;;;;;;;;;;5040684;28;20469;-80
2023/01/04 00:16:06;;;;;;;6.53;2.57;;;;;;;;;;5049367;28;20444;-80
2023/01/04 00:18:34;;;;;;;11.00;3.60;;;;;;;;;;5032680;28;20486;-80
2023/01/04 00:21:08;;;;;;;4.60;2.57;;;;;;;;;;5039250;28;20453;-80
2023/01/04 00:23:35;;;;;;;7.57;1.73;;;;;;;;;;5036475;28;20569;-80
2023/01/04 00:26:01;;;;;;;4.60;2.40;;;;;;;;;;5038327;28;20449;-80
2023/01/04 00:28:27;;;;;;;4.30;2.13;;;;;;;;;;5039142;28;20485;-80
2023/01/04 00:30:54;;;;;;;3.73;2.97;;;;;;;;;;5038391;28;20461;-80
2023/01/04 00:33:20;;;;;;;4.07;2.13;;;;;;;;;;5037749;28;20466;-80
2023/01/04 00:35:46;;;;;;;4.50;2.23;;;;;;;;;;5037708;28;20467;-80
2023/01/04 00:38:14;;;;;;;4.97;2.67;;;;;;;;;;5033139;28;20484;-80
2023/01/04 00:40:40;;;;;;;9.13;2.50;;;;;;;;;;5037009;28;20972;-80
2023/01/04 00:43:07;;;;;;;4.17;2.13;;;;;;;;;;5034694;28;20477;-80
2023/01/04 00:45:33;;;;;;;4.07;2.30;;;;;;;;;;5037736;28;20460;-80
2023/01/04 00:47:59;;;;;;;5.47;2.60;;;;;;;;;;5040724;28;20481;-80
2023/01/04 00:50:26;;;;;;;4.70;2.70;;;;;;;;;;5036995;28;20467;-80
2023/01/04 00:52:52;;;;;;;3.10;2.30;;;;;;;;;;5035897;28;20472;-80
2023/01/04 00:55:20;;;;;;;11.43;2.50;;;;;;;;;;5036007;28;20485;-80
2023/01/04 00:57:46;;;;;;;7.50;2.43;;;;;;;;;;5034387;28;20487;-80
2023/01/04 01:00:14;;;;;;;4.73;2.67;;;;;;;;;;5037623;28;20468;-80
2023/01/04 01:02:41;;;;;;;7.27;2.30;;;;;;;;;;5034444;28;20477;-80
2023/01/04 01:05:08;;;;;;;4.60;1.40;;;;;;;;;;5033091;28;20456;-80
2023/01/04 01:07:34;;;;;;;3.23;1.97;;;;;;;;;;5034028;28;20484;-80
2023/01/04 01:10:00;;;;;;;6.23;2.03;;;;;;;;;;5039566;28;20795;-80
2023/01/04 01:12:29;;;;;;;8.00;2.20;;;;;;;;;;5035762;28;20480;-80
2023/01/04 01:14:55;;;;;;;4.60;2.23;;;;;;;;;;5041238;28;20477;-80
2023/01/04 01:17:22;;;;;;;5.77;2.10;;;;;;;;;;5040146;28;20488;-80
2023/01/04 01:19:48;;;;;;;4.00;2.00;;;;;;;;;;5036786;28;20449;-80
2023/01/04 01:22:14;;;;;;;3.43;2.43;;;;;;;;;;5038629;28;20480;-80
2023/01/04 01:24:41;;;;;;;6.00;2.17;;;;;;;;;;5031539;28;20457;-80
2023/01/04 01:27:07;;;;;;;5.00;2.10;;;;;;;;;;5039404;28;20477;-80
2023/01/04 01:29:35;;;;;;;7.10;2.47;;;;;;;;;;5037955;28;20472;-80
2023/01/04 01:32:01;;;;;;;3.40;2.40;;;;;;;;;;5037010;28;20477;-80
2023/01/04 01:34:28;;;;;;;2.43;1.73;;;;;;;;;;5039401;28;20485;-80
2023/01/04 01:36:54;;;;;;;4.87;2.20;;;;;;;;;;5044557;28;20492;-80
2023/01/04 01:39:20;;;;;;;4.60;2.87;;;;;;;;;;5040274;28;20480;-80
2023/01/04 01:41:47;;;;;;;3.90;2.17;;;;;;;;;;5040167;28;20564;-80
2023/01/04 01:44:32;;;;;;;8.90;2.13;;;;;;;;;;5034813;28;20448;-80
2023/01/04 01:47:00;;;;;;;3.83;2.00;;;;;;;;;;5036560;28;20484;-80
2023/01/04 01:49:29;;;;;;;7.87;2.23;;;;;;;;;;5041025;28;20472;-80
2023/01/04 01:51:57;;;;;;;6.57;2.30;;;;;;;;;;5042751;28;20473;-80
2023/01/04 01:54:25;;;;;;;4.83;1.80;;;;;;;;;;5045854;28;20484;-80
2023/01/04 01:56:53;;;;;;;3.37;2.30;;;;;;;;;;5038814;28;20469;-80
2023/01/04 01:59:20;;;;;;;6.17;2.10;;;;;;;;;;5041821;28;20482;-80
2023/01/04 02:01:47;;;;;;;1.70;1.60;;;;;;;;;;5037074;28;20478;-80
2023/01/04 02:04:15;;;;;;;6.17;2.43;;;;;;;;;;5041826;28;20465;-80
2023/01/04 02:06:43;;;;;;;4.63;2.73;;;;;;;;;;5041241;28;20468;-80
2023/01/04 02:09:10;;;;;;;5.60;2.10;;;;;;;;;;5036069;28;20505;-80
2023/01/04 02:11:36;;;;;;;6.70;2.43;;;;;;;;;;5035227;28;20477;-80
2023/01/04 02:16:58;;;;;;;7.20;2.77;;;;;;;;;;5041794;28;20538;-80
2023/01/04 02:19:34;;;;;;;4.47;2.53;;;;;;;;;;5035741;28;20481;-80
2023/01/04 02:22:09;;;;;;;4.93;1.93;;;;;;;;;;5041796;28;20482;-80
2023/01/04 02:24:44;;;;;;;3.83;2.00;;;;;;;;;;5040365;28;20448;-80
2023/01/04 02:27:20;;;;;;;5.10;2.30;;;;;;;;;;5040123;28;20508;-80
2023/01/04 02:30:08;;;;;;;13.37;2.57;;;;;;;;;;5044740;28;20813;-80
2023/01/04 02:32:49;;;;;;;7.00;2.23;;;;;;;;;;5036943;28;20867;-80
2023/01/04 02:35:21;;;;;;;3.10;1.90;;;;;;;;;;5036169;28;20495;-80
2023/01/04 02:37:50;;;;;;;5.10;2.20;;;;;;;;;;5039531;28;20480;-80
2023/01/04 02:40:20;;;;;;;8.50;2.30;;;;;;;;;;5042835;28;20456;-80
2023/01/04 02:45:38;;;;;;;5.43;2.13;;;;;;;;;;5037396;28;20475;-80
2023/01/04 02:50:55;;;;;;;6.00;2.40;;;;;;;;;;5034480;28;20453;-80
2023/01/04 02:53:24;;;;;;;2.70;2.37;;;;;;;;;;5038465;28;20460;-80
2023/01/04 02:55:52;;;;;;;6.10;2.27;;;;;;;;;;5038507;28;20485;-80
2023/01/04 02:58:41;;;;;;;2.77;2.47;;;;;;;;;;5035054;28;20477;-79
2023/01/04 03:07:00;;;;;;;4.67;2.53;;;;;;;;;;5037741;28;20548;-79
2023/01/04 03:09:27;;;;;;;6.00;2.03;;;;;;;;;;5041397;28;20477;-80
2023/01/04 03:14:48;;;;;;;4.27;2.30;;;;;;;;;;5025706;28;20473;-79
2023/01/04 03:17:17;;;;;;;8.07;2.60;;;;;;;;;;5036476;28;20995;-79
2023/01/04 03:19:54;;;;;;;6.27;2.87;;;;;;;;;;5041409;28;20460;-79
2023/01/04 03:36:14;;;;;;;5.10;2.67;;;;;;;;;;5017965;28;20526;-80
2023/01/04 03:49:56;;;;;;;7.50;3.57;;;;;;;;;;5014133;28;20513;-79
2023/01/04 03:52:25;;;;;;;5.50;4.00;;;;;;;;;;5016472;28;20484;-79
2023/01/04 03:54:57;;;;;;;5.43;3.20;;;;;;;;;;5019865;28;20481;-80
2023/01/04 03:57:25;;;;;;;10.57;3.43;;;;;;;;;;5019018;28;21019;-80
2023/01/04 03:59:54;;;;;;;3.93;3.37;;;;;;;;;;5021643;28;20461;-80
2023/01/04 04:02:23;;;;;;;6.43;3.57;;;;;;;;;;5017374;28;20473;-80
2023/01/04 04:10:19;;;;;;;4.43;4.03;;;;;;;;;;5011874;28;20422;-80
2023/01/04 04:12:47;;;;;;;3.57;3.23;;;;;;;;;;5019234;28;20485;-79
2023/01/04 04:15:13;;;;;;;10.57;3.87;;;;;;;;;;5016218;28;20849;-80
2023/01/04 04:17:40;;;;;;;4.47;4.00;;;;;;;;;;5033474;28;20480;-80
2023/01/04 04:20:07;;;;;;;4.03;3.63;;;;;;;;;;5036773;28;20444;-80
2023/01/04 04:22:34;;;;;;;5.33;4.33;;;;;;;;;;5042720;28;20828;-80
2023/01/04 04:25:00;;;;;;;4.23;3.23;;;;;;;;;;5041664;28;20488;-80
2023/01/04 04:27:28;;;;;;;6.60;3.87;;;;;;;;;;5039940;28;20475;-80
2023/01/04 04:29:54;;;;;;;4.57;3.27;;;;;;;;;;5039407;28;20468;-80
2023/01/04 04:32:21;;;;;;;5.47;3.30;;;;;;;;;;5037178;28;20480;-80
2023/01/04 04:34:47;;;;;;;3.30;2.87;;;;;;;;;;5038236;28;20552;-80
2023/01/04 04:37:15;;;;;;;6.23;3.90;;;;;;;;;;5036668;28;20823;-80
2023/01/04 04:39:42;;;;;;;5.73;4.00;;;;;;;;;;5036258;28;20468;-80
2023/01/04 04:42:07;;;;;;;8.57;4.50;;;;;;;;;;5032268;28;20484;-80
2023/01/04 04:44:36;;;;;;;5.10;3.50;;;;;;;;;;5037799;28;20448;-80
2023/01/04 04:47:02;;;;;;;3.70;3.40;;;;;;;;;;5038011;28;20619;-81
2023/01/04 04:49:29;;;;;;;7.10;3.10;;;;;;;;;;5038781;28;20473;-79
2023/01/04 04:51:55;;;;;;;7.73;4.50;;;;;;;;;;5031225;28;20471;-80
2023/01/04 04:54:21;;;;;;;5.00;3.30;;;;;;;;;;5040147;28;20437;-80
2023/01/04 04:56:48;;;;;;;4.27;3.87;;;;;;;;;;5039106;28;20470;-80
2023/01/04 04:59:15;;;;;;;3.07;2.87;;;;;;;;;;5041335;28;20882;-80
2023/01/04 05:01:43;;;;;;;3.93;3.50;;;;;;;;;;5041515;28;20477;-80
2023/01/04 05:04:15;;;;;;;5.33;3.80;;;;;;;;;;5039616;28;20457;-80
2023/01/04 05:06:41;;;;;;;5.63;5.00;;;;;;;;;;5038124;28;20472;-80
2023/01/04 05:09:07;;;;;;;6.70;4.70;;;;;;;;;;5039170;28;20480;-80
2023/01/04 05:14:19;;;;;;;5.07;3.80;;;;;;;;;;5042151;28;20436;-80
2023/01/04 05:16:47;;;;;;;5.10;4.47;;;;;;;;;;5043048;28;20474;-80
2023/01/04 05:19:13;;;;;;;7.17;4.43;;;;;;;;;;5044307;28;20516;-80
2023/01/04 05:21:40;;;;;;;5.20;4.13;;;;;;;;;;5038130;28;20472;-80
2023/01/04 05:24:06;;;;;;;6.03;4.37;;;;;;;;;;5039844;28;20461;-80
2023/01/04 05:26:32;;;;;;;4.97;4.43;;;;;;;;;;5040411;28;20483;-80
2023/01/04 05:28:59;;;;;;;5.70;4.70;;;;;;;;;;5046738;28;20993;-80
2023/01/04 05:31:24;;;;;;;6.30;5.00;;;;;;;;;;5040471;28;20476;-80
2023/01/04 05:33:52;;;;;;;6.00;5.40;;;;;;;;;;5042324;28;20456;-80
2023/01/04 05:36:18;;;;;;;6.57;5.80;;;;;;;;;;5038251;28;20229;-80
2023/01/04 05:38:44;;;;;;;8.07;5.60;;;;;;;;;;5044806;28;20483;-80
2023/01/04 05:43:51;;;;;;;6.23;5.63;;;;;;;;;;5044295;28;20463;-80
2023/01/04 05:46:17;;;;;;;6.80;6.20;;;;;;;;;;5038686;28;20475;-80
2023/01/04 05:48:44;;;;;;;9.03;6.17;;;;;;;;;;5036595;28;20504;-81
2023/01/04 05:51:11;;;;;;;6.70;6.10;;;;;;;;;;5041033;28;20942;-80
2023/01/04 05:53:38;;;;;;;9.10;7.07;;;;;;;;;;5036193;28;20959;-80
2023/01/04 05:56:04;;;;;;;8.03;7.33;;;;;;;;;;5035105;28;20484;-80
2023/01/04 05:58:32;;;;;;;7.63;6.90;;;;;;;;;;5018591;28;20497;-80
2023/01/04 06:00:58;;;;;;;8.47;7.60;;;;;;;;;;5021444;28;20474;-80
2023/01/04 06:03:24;;;;;;;8.83;8.03;;;;;;;;;;5022508;28;20469;-80
2023/01/04 06:05:51;;;;;;;8.83;8.03;;;;;;;;;;5017578;28;20450;-80
2023/01/04 06:08:19;;;;;;;9.00;8.10;;;;;;;;;;5021801;28;20540;-80
2023/01/04 06:10:51;;;;;;;8.30;7.50;;;;;;;;;;5022344;28;20461;-80
2023/01/04 06:13:18;;;;;;;8.50;7.70;;;;;;;;;;5007612;28;20533;-80
2023/01/04 06:15:44;;;;;;;8.70;7.90;;;;;;;;;;5014444;28;20580;-80
2023/01/04 06:18:11;;;;;;;8.43;7.63;;;;;;;;;;5020413;28;20481;-80
2023/01/04 06:20:37;;;;;;;8.37;7.57;;;;;;;;;;5021708;28;20507;-80
2023/01/04 06:23:03;;;;;;;7.80;7.10;;;;;;;;;;5034844;28;20481;-80
2023/01/04 06:25:31;;;;;;;8.27;7.47;;;;;;;;;;5038402;28;20460;-80
2023/01/04 06:27:58;;;;;;;7.10;6.43;;;;;;;;;;5038387;28;20484;-80
2023/01/04 06:30:24;;;;;;;8.17;7.43;;;;;;;;;;5034627;28;20465;-80
2023/01/04 06:32:50;;;;;;;10.10;8.67;;;;;;;;;;5038664;28;20478;-80
2023/01/04 06:35:17;;;;;;;8.07;7.27;;;;;;;;;;5041110;28;20488;-80
2023/01/04 06:37:43;;;;;;;7.67;6.97;;;;;;;;;;5041350;28;20482;-80
2023/01/04 06:40:10;;;;;;;7.53;6.83;;;;;;;;;;5042630;28;20471;-80
2023/01/04 06:42:46;;;;;;;6.90;6.30;;;;;;;;;;5037120;28;20468;-79
2023/01/04 06:45:13;;;;;;;6.57;5.70;;;;;;;;;;5039849;28;20448;-79
2023/01/04 06:47:41;;;;;;;6.90;5.80;;;;;;;;;;5035869;28;20488;-80
2023/01/04 06:50:08;;;;;;;6.10;5.47;;;;;;;;;;5035287;28;20465;-80
2023/01/04 06:52:35;;;;;;;6.43;5.87;;;;;;;;;;5035935;28;20473;-80
2023/01/04 06:55:02;;;;;;;4.60;4.20;;;;;;;;;;5039203;28;20453;-79
2023/01/04 06:57:29;;;;;;;5.00;4.47;;;;;;;;;;5032406;28;20477;-80
2023/01/04 06:59:57;;;;;;;4.10;3.80;;;;;;;;;;5036239;28;20454;-81
2023/01/04 07:02:25;;;;;;;4.00;3.70;;;;;;;;;;5036092;28;20469;-80
2023/01/04 07:04:51;;;;;;;5.27;3.17;;;;;;;;;;5005527;28;1098526;-79
2023/01/04 07:07:18;;;;;;;4.07;3.73;;;;;;;;;;5034651;28;20477;-79
2023/01/04 07:09:44;;;;;;;3.03;2.73;;;;;;;;;;5037810;28;20467;-80
2023/01/04 07:12:11;;;;;;;2.70;2.50;;;;;;;;;;5034726;28;20469;-80
2023/01/04 07:14:37;;;;;;;2.70;2.50;;;;;;;;;;5037912;28;20456;-80
2023/01/04 07:17:05;;;;;;;2.20;2.10;;;;;;;;;;5035497;28;20470;-80
2023/01/04 07:19:31;;;;;;;3.10;2.67;;;;;;;;;;5039207;28;20552;-80
2023/01/04 07:21:58;;;;;;;4.67;2.60;;;;;;;;;;5037947;28;20472;-80
2023/01/04 07:24:24;;;;;;;3.80;2.50;;;;;;;;;;5037029;28;20441;-80
2023/01/04 07:26:52;;;;;;;3.00;2.10;;;;;;;;;;5041668;28;20483;-80
2023/01/04 07:29:18;;;;;;;2.37;2.17;;;;;;;;;;5037427;28;20475;-80
2023/01/04 07:31:45;;;;;;;2.13;1.93;;;;;;;;;;5034139;28;20474;-80
2023/01/04 07:34:13;;;;;;;5.23;2.93;;;;;;;;;;5041669;28;20464;-80
2023/01/04 07:36:40;;;;;;;2.43;2.20;;;;;;;;;;5036100;28;20473;-80
2023/01/04 07:39:08;;;;;;;3.00;1.90;;;;;;;;;;5043236;28;20472;-80
2023/01/04 07:41:36;;;;;;;2.30;2.03;;;;;;;;;;5037649;28;20533;-80
2023/01/04 07:44:03;;;;;;;1.97;1.87;;;;;;;;;;5035583;28;20456;-80
2023/01/04 07:46:29;;;;;;;1.87;1.63;;;;;;;;;;5040322;28;20467;-80
2023/01/04 07:48:56;;;;;;;1.70;1.60;;;;;;;;;;5038843;28;20905;-80
2023/01/04 07:51:27;;;;;;;1.87;1.67;;;;;;;;;;5038148;28;20465;-80
2023/01/04 07:53:53;;;;;;;1.40;1.30;;;;;;;;;;5042379;28;20463;-80
2023/01/04 07:56:20;;;;;;;2.50;1.60;;;;;;;;;;5037068;28;20488;-80
2023/01/04 07:58:46;;;;;;;1.50;1.40;;;;;;;;;;5043228;28;20556;-80
2023/01/04 08:01:13;;;;;;;3.50;1.30;;;;;;;;;;5038973;28;20460;-80
2023/01/04 08:03:40;;;;;;;1.57;1.47;;;;;;;;;;5038426;28;20461;-80
2023/01/04 08:06:07;;;;;;;1.60;1.50;;;;;;;;;;5041694;28;20471;-80
2023/01/04 08:08:35;;;;;;;1.63;1.53;;;;;;;;;;5038348;28;20492;-80
2023/01/04 08:11:02;;;;;;;1.50;1.40;;;;;;;;;;5037721;28;20442;-80
2023/01/04 08:13:28;;;;;;;1.80;1.70;;;;;;;;;;5040554;28;20465;-80
2023/01/04 08:15:58;;;;;;;1.87;1.77;;;;;;;;;;5036873;28;20993;-80
2023/01/04 08:18:24;;;;;;;1.80;1.60;;;;;;;;;;5036652;28;20473;-80
2023/01/04 08:20:50;;;;;;;1.70;1.60;;;;;;;;;;5043976;28;20446;-80
2023/01/04 08:23:17;;;;;;;2.33;1.87;;;;;;;;;;5034729;28;20473;-81
2023/01/04 08:25:44;;;;;;;1.70;1.60;;;;;;;;;;5040115;28;20453;-80
2023/01/04 08:28:11;;;;;;;2.13;2.03;;;;;;;;;;5038804;28;20485;-80
2023/01/04 08:30:37;;;;;;;1.70;1.60;;;;;;;;;;5037659;28;20453;-80
2023/01/04 08:33:12;;;;;;;2.20;2.00;;;;;;;;;;5038190;28;20468;-80
2023/01/04 08:35:38;;;;;;;1.50;1.40;;;;;;;;;;5037833;28;20443;-80
2023/01/04 08:38:04;;;;;;;1.50;1.40;;;;;;;;;;5040807;28;20504;-80
2023/01/04 08:40:31;;;;;;;1.70;1.60;;;;;;;;;;5040372;28;20536;-81
2023/01/04 08:42:58;;;;;;;2.83;2.03;;;;;;;;;;5041361;28;20473;-80
2023/01/04 08:45:25;;;;;;;2.20;2.00;;;;;;;;;;5036835;28;20459;-80
2023/01/04 08:47:51;;;;;;;1.87;1.77;;;;;;;;;;5039470;28;20481;-80
2023/01/04 08:50:19;;;;;;;2.23;2.13;;;;;;;;;;5038378;28;20442;-80
2023/01/04 08:52:45;;;;;;;2.00;1.90;;;;;;;;;;5040248;28;20873;-80
2023/01/04 08:55:12;;;;;;;2.13;2.03;;;;;;;;;;5037990;28;20457;-80
2023/01/04 08:57:38;;;;;;;2.90;2.70;;;;;;;;;;5038405;28;20478;-80
2023/01/04 09:00:11;;;;;;;2.13;2.03;;;;;;;;;;5037535;28;20445;-81
2023/01/04 09:02:38;;;;;;;4.20;2.07;;;;;;;;;;5034082;28;20536;-80
2023/01/04 09:05:05;;;;;;;3.13;2.37;;;;;;;;;;5040548;28;20460;-80
2023/01/04 09:07:32;;;;;;;2.30;2.10;;;;;;;;;;5034941;28;20485;-80
2023/01/04 09:09:59;;;;;;;2.43;2.33;;;;;;;;;;5036806;28;20468;-80
2023/01/04 09:12:25;;;;;;;2.43;1.80;;;;;;;;;;5038041;28;20501;-80
2023/01/04 09:14:52;;;;;;;1.90;1.80;;;;;;;;;;5038954;28;20467;-80
2023/01/04 09:17:19;;;;;;;2.00;1.90;;;;;;;;;;5036840;28;20473;-80
2023/01/04 09:19:46;;;;;;;2.03;1.93;;;;;;;;;;5039275;28;20460;-80
2023/01/04 09:22:12;;;;;;;1.47;1.37;;;;;;;;;;5035631;28;21093;-80
2023/01/04 09:24:38;;;;;;;1.50;1.40;;;;;;;;;;5035522;28;20461;-80
2023/01/04 09:27:05;;;;;;;1.30;1.20;;;;;;;;;;5030343;28;20470;-80
2023/01/04 09:29:32;;;;;;;1.60;1.20;;;;;;;;;;5034609;28;20460;-80
2023/01/04 09:31:58;;;;;;;1.93;1.30;;;;;;;;;;5036014;28;20487;-80
2023/01/04 09:34:26;;;;;;;1.13;1.03;;;;;;;;;;5036577;28;20455;-81
2023/01/04 09:36:52;;;;;;;2.70;1.80;;;;;;;;;;5037006;28;20477;-80
2023/01/04 09:39:19;;;;;;;1.07;1.07;;;;;;;;;;5033901;28;20464;-81
2023/01/04 09:41:47;;;;;;;1.23;1.13;;;;;;;;;;5032481;28;20511;-80
2023/01/04 09:44:17;;;;;;;1.10;1.00;;;;;;;;;;5035580;28;20504;-80
2023/01/04 09:46:46;;;;;;;1.57;1.47;;;;;;;;;;5037732;28;20467;-80
2023/01/04 09:49:16;;;;;;;2.10;1.50;;;;;;;;;;5038398;28;20469;-81
2023/01/04 09:51:48;;;;;;;1.10;1.00;;;;;;;;;;5033730;28;20910;-81
2023/01/04 09:54:19;;;;;;;2.50;1.30;;;;;;;;;;5041993;28;20446;-81
2023/01/04 09:56:48;;;;;;;1.57;1.40;;;;;;;;;;5040754;28;20477;-81
2023/01/04 09:59:16;;;;;;;1.23;1.13;;;;;;;;;;5040985;28;20477;-80
2023/01/04 10:01:45;;;;;;;1.33;1.10;;;;;;;;;;5041184;28;20484;-81
2023/01/04 10:04:15;;;;;;;1.30;1.20;;;;;;;;;;5040707;28;20468;-80
2023/01/04 10:06:42;;;;;;;1.17;1.00;;;;;;;;;;5040722;28;20465;-80
2023/01/04 10:09:12;;;;;;;1.60;1.10;;;;;;;;;;5040645;28;20490;-80
2023/01/04 10:11:45;;;;;;;2.30;1.30;;;;;;;;;;5031866;28;20464;-80
2023/01/04 10:14:22;;;;;;;1.77;1.67;;;;;;;;;;5040602;28;20456;-80
2023/01/04 10:16:55;;;;;;;1.20;1.20;;;;;;;;;;5038777;28;20488;-80
2023/01/04 10:19:28;;;;;;;1.60;1.50;;;;;;;;;;5042269;28;20469;-80
2023/01/04 10:21:58;;;;;;;1.80;1.60;;;;;;;;;;5043017;28;20489;-80
2023/01/04 10:24:35;;;;;;;1.63;1.53;;;;;;;;;;5034575;28;20491;-80
2023/01/04 10:27:07;;;;;;;4.87;2.40;;;;;;;;;;5038686;28;20468;-81
2023/01/04 10:29:42;;;;;;;1.80;1.70;;;;;;;;;;5041788;28;20473;-81
2023/01/04 10:32:14;;;;;;;1.50;1.30;;;;;;;;;;5033565;28;20473;-80
2023/01/04 10:34:41;;;;;;;1.60;1.47;;;;;;;;;;5032963;28;20492;-78
2023/01/04 10:37:12;;;;;;;1.80;1.70;;;;;;;;;;5031006;28;20473;-79
2023/01/04 10:39:41;;;;;;;2.00;1.47;;;;;;;;;;5040611;28;20461;-84
2023/01/04 10:42:10;;;;;;;2.23;1.80;;;;;;;;;;5038142;28;20536;-80
2023/01/04 10:44:40;;;;;;;1.57;1.37;;;;;;;;;;5040803;28;20972;-80
2023/01/04 10:47:10;;;;;;;2.37;1.30;;;;;;;;;;5038798;28;20476;-80
2023/01/04 10:49:40;;;;;;;1.30;1.20;;;;;;;;;;5043058;28;20449;-81
2023/01/04 10:52:08;;;;;;;1.50;1.40;;;;;;;;;;5037891;28;20506;-80
2023/01/04 10:54:38;;;;;;;1.40;1.40;;;;;;;;;;5038942;28;20461;-80
2023/01/04 10:57:10;;;;;;;1.90;1.70;;;;;;;;;;5037624;28;20481;-80
2023/01/04 10:59:39;;;;;;;1.47;1.37;;;;;;;;;;5034760;28;20438;-80
2023/01/04 11:02:09;;;;;;;1.70;1.60;;;;;;;;;;5046229;28;20479;-80
2023/01/04 11:04:37;;;;;;;1.50;1.40;;;;;;;;;;5037789;28;20454;-81
2023/01/04 11:07:07;;;;;;;1.10;1.00;;;;;;;;;;5042152;28;20461;-81
2023/01/04 11:09:35;;;;;;;1.40;1.30;;;;;;;;;;5035616;28;20441;-81
2023/01/04 11:12:02;;;;;;;1.93;1.40;;;;;;;;;;5030738;28;20481;-80
2023/01/04 11:14:30;;;;;;;1.67;1.30;;;;;;;;;;5037263;28;20815;-79
2023/01/04 11:16:59;;;;;;;2.40;1.13;;;;;;;;;;5036148;28;20480;-80
2023/01/04 11:19:27;;;;;;;7.20;1.40;;;;;;;;;;5037618;28;20477;-80
2023/01/04 11:21:57;;;;;;;1.10;1.10;;;;;;;;;;5036676;28;20478;-80
2023/01/04 11:24:26;;;;;;;1.07;1.07;;;;;;;;;;5033565;28;20441;-80
2023/01/04 11:26:53;;;;;;;1.33;1.23;;;;;;;;;;5037348;28;20488;-80
2023/01/04 11:29:28;;;;;;;1.43;1.33;;;;;;;;;;5040335;28;20493;-79
2023/01/04 11:32:00;;;;;;;1.03;1.00;;;;;;;;;;5038322;28;20488;-80
2023/01/04 11:34:41;;;;;;;1.23;1.00;;;;;;;;;;5038594;28;20524;-80
2023/01/04 11:37:25;;;;;;;1.13;1.13;;;;;;;;;;5036536;28;20473;-80
2023/01/04 11:39:51;;;;;;;1.03;1.03;;;;;;;;;;5035515;28;20852;-79
2023/01/04 11:42:20;;;;;;;1.50;1.40;;;;;;;;;;5040625;28;20862;-80
2023/01/04 11:44:57;;;;;;;1.83;1.57;;;;;;;;;;5036057;28;20462;-79
2023/01/04 11:47:27;;;;;;;1.47;1.37;;;;;;;;;;5036521;28;20873;-80
2023/01/04 11:49:53;;;;;;;2.37;2.17;;;;;;;;;;5034914;28;20488;-80
2023/01/04 11:52:29;;;;;;;2.43;2.23;;;;;;;;;;5037250;28;20472;-80
2023/01/04 11:54:56;;;;;;;2.50;2.07;;;;;;;;;;5040005;28;20456;-80
2023/01/04 11:57:23;;;;;;;2.10;1.90;;;;;;;;;;5035854;28;20484;-80
2023/01/04 12:00:07;;;;;;;3.30;2.40;;;;;;;;;;5034560;28;20453;-80
2023/01/04 12:02:35;;;;;;;4.47;2.80;;;;;;;;;;5036197;28;20896;-80
2023/01/04 12:05:01;;;;;;;4.40;2.33;;;;;;;;;;5035247;28;20468;-80
2023/01/04 12:07:30;;;;;;;3.40;2.40;;;;;;;;;;5037175;28;20469;-79
2023/01/04 12:09:58;;;;;;;4.43;2.60;;;;;;;;;;5037367;28;20465;-80
2023/01/04 12:12:27;;;;;;;3.93;2.30;;;;;;;;;;5035693;28;21001;-80
2023/01/04 12:14:54;;;;;;;6.93;3.20;;;;;;;;;;5036113;28;20461;-80
2023/01/04 12:17:23;;;;;;;7.50;3.57;;;;;;;;;;5036842;28;20480;-80
2023/01/04 12:19:54;;;;;;;8.70;3.20;;;;;;;;;;5030981;28;20454;-80
2023/01/04 12:22:22;;;;;;;6.43;3.20;;;;;;;;;;5035088;28;20477;-80
2023/01/04 12:24:49;;;;;;;6.00;2.90;;;;;;;;;;5034417;28;20471;-80
2023/01/04 12:27:16;;;;;;;8.93;4.10;;;;;;;;;;5037781;28;20469;-80
2023/01/04 12:29:44;;;;;;;2.53;1.97;;;;;;;;;;5035077;28;20805;-80
2023/01/04 12:32:31;;;;;;;3.10;1.93;;;;;;;;;;5037647;28;20480;-80
2023/01/04 12:34:59;;;;;;;4.00;2.23;;;;;;;;;;5033700;28;20472;-80
2023/01/04 12:37:44;;;;;;;2.47;2.03;;;;;;;;;;5034130;28;20499;-80
2023/01/04 12:40:25;;;;;;;5.83;3.47;;;;;;;;;;5033860;28;20469;-80
2023/01/04 12:43:07;;;;;;;5.17;3.13;;;;;;;;;;5030491;28;20469;-80
2023/01/04 12:45:33;;;;;;;7.33;3.70;;;;;;;;;;5035445;28;20461;-80
2023/01/04 12:51:22;;;;;;;4.50;2.40;;;;;;;;;;5038878;28;20498;-81
2023/01/04 12:53:51;;;;;;;6.50;2.30;;;;;;;;;;5038144;28;20455;-80
2023/01/04 12:56:19;;;;;;;7.57;2.70;;;;;;;;;;5033516;28;20485;-80
2023/01/04 12:59:06;;;;;;;4.57;2.73;;;;;;;;;;5033092;28;20488;-80
2023/01/04 13:01:33;;;;;;;3.40;1.90;;;;;;;;;;5039681;28;20479;-80
2023/01/04 13:04:00;;;;;;;1.77;1.67;;;;;;;;;;5038406;28;20472;-80
2023/01/04 13:06:28;;;;;;;1.10;0.97;;;;;;;;;;5035971;28;20464;-80
2023/01/04 13:08:56;;;;;;;1.00;1.00;;;;;;;;;;5035736;28;20457;-80
2023/01/04 13:11:33;;;;;;;1.73;1.30;;;;;;;;;;5034758;28;20468;-80
2023/01/04 13:14:02;;;;;;;1.40;1.30;;;;;;;;;;5033685;28;20824;-80
2023/01/04 13:16:30;;;;;;;1.20;1.10;;;;;;;;;;5026834;28;20468;-80
2023/01/04 13:18:57;;;;;;;1.33;1.23;;;;;;;;;;5035352;28;20579;-81
2023/01/04 13:21:26;;;;;;;1.83;1.43;;;;;;;;;;5031525;28;20464;-80
2023/01/04 13:23:55;;;;;;;3.30;1.40;;;;;;;;;;5037193;28;20457;-80
2023/01/04 13:26:37;;;;;;;1.80;1.70;;;;;;;;;;5035781;28;20855;-80
2023/01/04 13:29:07;;;;;;;1.40;1.30;;;;;;;;;;5041624;28;20476;-80
2023/01/04 13:31:38;;;;;;;1.70;1.47;;;;;;;;;;5037592;28;20480;-80
2023/01/04 13:34:05;;;;;;;2.27;1.30;;;;;;;;;;5030361;28;20462;-80
2023/01/04 13:36:31;;;;;;;2.00;1.43;;;;;;;;;;5038467;28;20476;-80
2023/01/04 13:38:58;;;;;;;3.60;1.90;;;;;;;;;;5037778;28;20489;-80
2023/01/04 13:41:25;;;;;;;3.27;1.60;;;;;;;;;;5039771;28;20491;-80
2023/01/04 13:43:57;;;;;;;3.10;1.60;;;;;;;;;;5029471;28;20449;-80
2023/01/04 13:46:24;;;;;;;2.07;1.90;;;;;;;;;;5034879;28;20468;-80
2023/01/04 13:48:51;;;;;;;2.87;1.93;;;;;;;;;;5043543;28;20477;-80
2023/01/04 13:51:23;;;;;;;4.97;2.67;;;;;;;;;;5039971;28;20469;-81
2023/01/04 13:53:53;;;;;;;7.20;2.93;;;;;;;;;;5034394;28;20454;-80
2023/01/04 13:56:20;;;;;;;12.40;3.83;;;;;;;;;;5035670;28;20492;-81
2023/01/04 13:58:46;;;;;;;4.70;2.43;;;;;;;;;;5044964;28;20488;-80
2023/01/04 14:01:16;;;;;;;7.23;3.10;;;;;;;;;;5042218;28;20989;-80
2023/01/04 14:03:44;;;;;;;3.93;2.63;;;;;;;;;;5039711;28;20468;-81
2023/01/04 14:06:13;;;;;;;3.57;2.40;;;;;;;;;;5036192;28;20441;-80
2023/01/04 14:08:41;;;;;;;4.50;2.20;;;;;;;;;;5039652;28;20548;-80
2023/01/04 14:11:14;;;;;;;2.40;2.20;;;;;;;;;;5039067;28;20449;-80
2023/01/04 14:13:45;;;;;;;5.00;2.70;;;;;;;;;;5037669;28;20900;-80
2023/01/04 14:16:12;;;;;;;5.33;2.20;;;;;;;;;;5036179;28;20443;-80
2023/01/04 14:18:40;;;;;;;8.23;3.50;;;;;;;;;;5036238;28;20500;-80
2023/01/04 14:21:14;;;;;;;5.30;3.57;;;;;;;;;;5037812;28;20469;-80
2023/01/04 14:23:40;;;;;;;11.30;5.70;;;;;;;;;;5038995;28;20456;-81
2023/01/04 14:26:07;;;;;;;8.27;3.90;;;;;;;;;;5040601;28;20457;-80
2023/01/04 14:28:42;;;;;;;10.60;3.30;;;;;;;;;;5038499;28;20475;-80
2023/01/04 14:31:30;;;;;;;6.27;3.33;;;;;;;;;;5036792;28;20457;-80
2023/01/04 14:33:58;;;;;;;3.20;2.60;;;;;;;;;;5037796;28;20453;-80
2023/01/04 14:36:27;;;;;;;4.20;2.40;;;;;;;;;;5040598;28;20855;-80
2023/01/04 14:38:56;;;;;;;10.63;4.43;;;;;;;;;;5036619;28;20547;-80
2023/01/04 14:41:24;;;;;;;6.13;2.90;;;;;;;;;;5037218;28;20475;-80
2023/01/04 14:43:52;;;;;;;4.20;2.17;;;;;;;;;;5032122;28;20461;-80
2023/01/04 14:46:19;;;;;;;7.93;3.40;;;;;;;;;;5033104;28;20519;-80
2023/01/04 14:48:45;;;;;;;6.97;2.73;;;;;;;;;;5035298;28;20473;-80
2023/01/04 14:51:15;;;;;;;6.37;3.30;;;;;;;;;;5036840;28;20468;-80
2023/01/04 14:53:41;;;;;;;6.13;3.10;;;;;;;;;;5039133;28;20453;-81
2023/01/04 14:56:10;;;;;;;7.87;3.27;;;;;;;;;;5035512;28;20441;-81
2023/01/04 14:58:37;;;;;;;6.73;3.87;;;;;;;;;;5036522;28;20845;-80
2023/01/04 15:01:03;;;;;;;13.13;3.87;;;;;;;;;;5037210;28;20449;-80
2023/01/04 15:03:29;;;;;;;13.40;4.50;;;;;;;;;;5037053;28;20464;-81
2023/01/04 15:05:56;;;;;;;6.30;2.97;;;;;;;;;;5033750;28;20454;-81
2023/01/04 15:08:23;;;;;;;7.33;2.97;;;;;;;;;;5039763;28;20993;-80
2023/01/04 15:10:50;;;;;;;7.07;3.50;;;;;;;;;;5036242;28;20455;-80
2023/01/04 15:13:16;;;;;;;7.93;4.07;;;;;;;;;;5037160;28;20472;-80
2023/01/04 15:15:42;;;;;;;8.07;3.40;;;;;;;;;;5031277;28;20469;-80
2023/01/04 15:18:10;;;;;;;5.10;3.93;;;;;;;;;;5036396;28;21021;-80
2023/01/04 15:20:39;;;;;;;11.20;6.20;;;;;;;;;;5042227;28;20460;-80
2023/01/04 15:23:05;;;;;;;15.90;3.67;;;;;;;;;;5035831;28;20481;-80
2023/01/04 15:25:33;;;;;;;9.70;4.70;;;;;;;;;;5039357;28;20434;-80
2023/01/04 15:27:59;;;;;;;11.80;6.07;;;;;;;;;;5035607;28;20551;-80
2023/01/04 15:30:26;;;;;;;14.50;9.20;;;;;;;;;;5040435;28;20459;-80
2023/01/04 15:32:52;;;;;;;11.07;4.10;;;;;;;;;;5033149;28;20477;-80
2023/01/04 15:35:20;;;;;;;25.27;15.50;;;;;;;;;;5041421;28;20457;-81
2023/01/04 15:37:46;;;;;;;16.93;6.30;;;;;;;;;;5034856;28;20500;-81
2023/01/04 15:40:14;;;;;;;26.63;12.13;;;;;;;;;;5039642;28;20461;-80
2023/01/04 15:43:00;;;;;;;9.47;4.10;;;;;;;;;;5037810;28;20473;-81
2023/01/04 15:45:27;;;;;;;12.80;3.90;;;;;;;;;;5036105;28;20450;-80
2023/01/04 15:47:56;;;;;;;9.87;3.70;;;;;;;;;;5034590;28;20491;-80